createdAt,value
2019-03-28T00:01:58.179Z,22.40
2019-03-28T00:04:24.739Z,20.80
2019-03-28T00:06:51.337Z,21.80
2019-03-28T00:09:17.910Z,22.70
2019-03-28T00:11:44.500Z,23.40
2019-03-28T00:14:11.731Z,21.77
2019-03-28T00:16:38.320Z,23.40
2019-03-28T00:19:04.893Z,21.23
2019-03-28T00:21:31.479Z,26.43
2019-03-28T00:24:15.141Z,23.90
2019-03-28T00:26:41.727Z,23.33
2019-03-28T00:29:08.296Z,25.30
2019-03-28T00:31:35.252Z,24.57
2019-03-28T00:34:02.064Z,22.37
2019-03-28T00:36:28.652Z,23.27
2019-03-28T00:38:55.230Z,22.87
2019-03-28T00:41:21.815Z,23.23
2019-03-28T00:43:48.387Z,23.03
2019-03-28T00:46:14.971Z,21.77
2019-03-28T00:48:41.544Z,26.83
2019-03-28T00:51:08.132Z,22.47
2019-03-28T00:53:34.699Z,24.93
2019-03-28T00:56:01.288Z,26.17
2019-03-28T00:58:27.862Z,21.70
2019-03-28T01:00:54.447Z,23.00
2019-03-28T01:03:21.020Z,19.27
2019-03-28T01:05:47.695Z,22.67
2019-03-28T01:08:14.280Z,24.37
2019-03-28T01:10:41.269Z,23.87
2019-03-28T01:13:07.876Z,20.93
2019-03-28T01:15:34.479Z,23.03
2019-03-28T01:18:01.087Z,20.17
2019-03-28T01:20:27.674Z,22.90
2019-03-28T01:22:54.375Z,21.70
2019-03-28T01:25:20.964Z,22.10
2019-03-28T01:27:47.562Z,22.63
2019-03-28T01:30:16.047Z,20.87
2019-03-28T01:33:01.344Z,22.23
2019-03-28T01:35:27.952Z,23.97
2019-03-28T01:37:54.555Z,25.27
2019-03-28T01:40:21.144Z,23.97
2019-03-28T01:42:47.747Z,24.20
2019-03-28T01:45:14.336Z,22.87
2019-03-28T01:47:40.935Z,22.47
2019-03-28T01:50:07.723Z,24.23
2019-03-28T01:52:34.368Z,23.57
2019-03-28T01:55:00.991Z,23.93
2019-03-28T01:57:27.604Z,22.73
2019-03-28T01:59:54.183Z,21.40
2019-03-28T02:02:20.767Z,23.30
2019-03-28T02:04:47.372Z,24.87
2019-03-28T02:07:13.936Z,22.77
2019-03-28T02:09:40.574Z,24.97
2019-03-28T02:12:07.136Z,25.73
2019-03-28T02:14:33.735Z,24.07
2019-03-28T02:17:00.303Z,26.07
2019-03-28T02:19:26.891Z,23.80
2019-03-28T02:21:53.456Z,21.90
2019-03-28T02:24:20.036Z,22.93
2019-03-28T02:26:46.599Z,28.00
2019-03-28T02:29:13.183Z,23.00
2019-03-28T02:31:39.753Z,27.13
2019-03-28T02:34:06.475Z,22.80
2019-03-28T02:36:33.130Z,22.27
2019-03-28T02:38:59.687Z,24.87
2019-03-28T02:41:26.263Z,23.27
2019-03-28T02:43:52.823Z,25.43
2019-03-28T02:46:22.721Z,26.90
2019-03-28T02:48:49.623Z,26.00
2019-03-28T02:51:16.201Z,24.43
2019-03-28T02:53:42.765Z,24.07
2019-03-28T02:56:09.350Z,24.47
2019-03-28T02:58:36.805Z,25.70
2019-03-28T03:01:04.095Z,24.67
2019-03-28T03:03:30.754Z,25.83
2019-03-28T03:05:57.385Z,25.43
2019-03-28T03:08:23.939Z,27.20
2019-03-28T03:10:50.503Z,26.33
2019-03-28T03:13:17.083Z,23.83
2019-03-28T03:15:43.995Z,26.70
2019-03-28T03:18:10.568Z,24.30
2019-03-28T03:20:37.126Z,27.93
2019-03-28T03:23:03.709Z,23.73
2019-03-28T03:25:30.309Z,28.67
2019-03-28T03:27:59.125Z,24.73
2019-03-28T03:30:25.414Z,28.00
2019-03-28T03:32:52.087Z,27.03
2019-03-28T03:35:18.650Z,26.50
2019-03-28T03:37:45.343Z,27.43
2019-03-28T03:40:12.204Z,27.27
2019-03-28T03:42:38.810Z,25.57
2019-03-28T03:45:06.052Z,27.67
2019-03-28T03:47:32.727Z,22.23
2019-03-28T03:49:59.311Z,30.40
2019-03-28T03:52:25.867Z,26.33
2019-03-28T03:54:52.451Z,24.90
2019-03-28T03:57:19.016Z,26.07
2019-03-28T03:59:45.599Z,24.97
2019-03-28T04:02:12.181Z,27.70
2019-03-28T04:04:38.791Z,24.53
2019-03-28T04:07:05.447Z,26.40
2019-03-28T04:09:32.124Z,30.77
2019-03-28T04:12:18.553Z,27.17
2019-03-28T04:14:45.328Z,27.80
2019-03-28T04:17:11.951Z,25.57
2019-03-28T04:19:38.520Z,29.00
2019-03-28T04:22:24.964Z,25.83
2019-03-28T04:24:51.560Z,26.13
2019-03-28T04:27:18.128Z,24.73
2019-03-28T04:29:44.690Z,27.27
2019-03-28T04:32:11.265Z,25.60
2019-03-28T04:34:38.079Z,27.93
2019-03-28T04:37:04.663Z,25.03
2019-03-28T04:39:31.222Z,27.93
2019-03-28T04:41:58.203Z,25.57
2019-03-28T04:44:24.754Z,25.80
2019-03-28T04:46:52.335Z,27.03
2019-03-28T04:49:18.975Z,26.87
2019-03-28T04:51:45.578Z,25.93
2019-03-28T04:54:12.178Z,28.50
2019-03-28T04:56:38.754Z,25.63
2019-03-28T04:59:05.319Z,27.13
2019-03-28T05:01:32.213Z,27.37
2019-03-28T05:03:58.776Z,28.43
2019-03-28T05:06:25.394Z,26.73
2019-03-28T05:08:52.034Z,28.00
2019-03-28T05:11:18.671Z,26.70
2019-03-28T05:14:05.173Z,27.60
2019-03-28T05:16:31.810Z,28.90
2019-03-28T05:18:58.447Z,29.83
2019-03-28T05:21:25.068Z,29.07
2019-03-28T05:23:51.694Z,30.07
2019-03-28T05:26:18.340Z,46.90
2019-03-28T05:28:57.056Z,30.80
2019-03-28T05:31:13.689Z,28.73
2019-03-28T05:33:40.551Z,26.80
2019-03-28T05:36:07.166Z,31.60
2019-03-28T05:38:33.781Z,30.13
2019-03-28T05:41:00.418Z,30.80
2019-03-28T05:43:29.833Z,31.60
2019-03-28T05:45:56.578Z,30.17
2019-03-28T05:48:23.200Z,30.43
2019-03-28T05:50:49.835Z,29.63
2019-03-28T05:53:16.451Z,29.10
2019-03-28T05:55:43.079Z,28.57
2019-03-28T05:58:09.843Z,32.57
2019-03-28T06:00:38.885Z,27.87
2019-03-28T06:03:05.046Z,29.07
2019-03-28T06:05:31.679Z,31.87
2019-03-28T06:07:58.287Z,27.30
2019-03-28T06:10:24.858Z,30.43
2019-03-28T06:12:51.451Z,31.83
2019-03-28T06:15:18.039Z,28.87
2019-03-28T06:17:44.599Z,33.60
2019-03-28T06:20:11.477Z,29.57
2019-03-28T06:22:38.050Z,28.57
2019-03-28T06:25:05.895Z,31.87
2019-03-28T06:27:33.436Z,30.70
2019-03-28T06:30:02.087Z,31.33
2019-03-28T06:32:41.962Z,33.13
2019-03-28T06:34:57.126Z,35.00
2019-03-28T06:37:23.702Z,33.07
2019-03-28T06:39:50.263Z,38.43
2019-03-28T06:42:16.835Z,38.53
2019-03-28T06:44:43.419Z,37.97
2019-03-28T06:47:09.999Z,36.23
2019-03-28T06:49:37.356Z,48.40
2019-03-28T06:52:03.935Z,64.10
2019-03-28T06:54:30.857Z,37.67
2019-03-28T06:56:57.797Z,36.57
2019-03-28T06:59:36.604Z,32.37
2019-03-28T07:01:52.818Z,32.70
2019-03-28T07:04:19.393Z,31.93
2019-03-28T07:06:45.968Z,30.40
2019-03-28T07:09:12.538Z,29.93
2019-03-28T07:11:39.206Z,36.47
2019-03-28T07:14:05.835Z,31.43
2019-03-28T07:16:32.719Z,31.43
2019-03-28T07:18:59.657Z,33.00
2019-03-28T07:21:26.295Z,34.87
2019-03-28T07:23:52.892Z,33.67
2019-03-28T07:26:19.454Z,30.47
2019-03-28T07:28:46.081Z,34.07
2019-03-28T07:31:12.869Z,34.20
2019-03-28T07:33:39.676Z,31.43
2019-03-28T07:36:06.342Z,32.70
2019-03-28T07:38:33.070Z,151.10
2019-03-28T07:40:59.688Z,75.53
2019-03-28T07:43:26.247Z,36.73
2019-03-28T07:45:53.375Z,32.23
2019-03-28T07:48:20.850Z,29.27
2019-03-28T07:50:47.506Z,32.40
2019-03-28T07:53:14.066Z,31.87
2019-03-28T07:55:40.647Z,29.17
2019-03-28T07:58:07.636Z,33.17
2019-03-28T08:00:35.798Z,27.00
2019-03-28T08:03:02.363Z,37.30
2019-03-28T08:05:28.942Z,36.73
2019-03-28T08:07:55.504Z,32.00
2019-03-28T08:10:22.090Z,32.57
2019-03-28T08:12:48.746Z,28.60
2019-03-28T08:15:15.546Z,32.53
2019-03-28T08:17:42.215Z,27.77
2019-03-28T08:20:09.594Z,30.03
2019-03-28T08:22:36.157Z,34.27
2019-03-28T08:25:07.412Z,29.07
2019-03-28T08:27:33.116Z,29.87
2019-03-28T08:29:59.747Z,28.97
2019-03-28T08:32:27.462Z,31.80
2019-03-28T08:34:54.230Z,29.10
2019-03-28T08:37:21.006Z,27.57
2019-03-28T08:39:47.674Z,32.77
2019-03-28T08:42:14.307Z,27.77
2019-03-28T08:44:40.922Z,27.87
2019-03-28T08:47:07.550Z,30.97
2019-03-28T08:49:34.122Z,30.40
2019-03-28T08:52:00.760Z,27.33
2019-03-28T08:54:27.375Z,27.10
2019-03-28T08:56:54.007Z,27.97
2019-03-28T08:59:20.579Z,29.23
2019-03-28T09:01:47.183Z,30.17
2019-03-28T09:04:13.799Z,29.13
2019-03-28T09:06:40.415Z,34.47
2019-03-28T09:09:08.447Z,32.27
2019-03-28T09:11:35.059Z,29.53
2019-03-28T09:14:01.751Z,32.90
2019-03-28T09:16:28.377Z,30.70
2019-03-28T09:18:54.999Z,29.13
2019-03-28T09:21:21.891Z,29.47
2019-03-28T09:23:48.701Z,37.93
2019-03-28T09:26:15.314Z,34.77
2019-03-28T09:28:41.950Z,42.87
2019-03-28T09:31:19.251Z,27.77
2019-03-28T09:33:40.517Z,34.37
2019-03-28T09:36:05.682Z,30.57
2019-03-28T09:38:32.312Z,29.20
2019-03-28T09:40:58.915Z,33.90
2019-03-28T09:43:25.518Z,33.50
2019-03-28T09:45:52.105Z,41.03
2019-03-28T09:48:18.716Z,52.70
2019-03-28T09:50:45.403Z,51.80
2019-03-28T09:53:12.011Z,44.10
2019-03-28T09:55:38.625Z,101.80
2019-03-28T09:58:05.218Z,50.60
2019-03-28T10:00:32.976Z,84.40
2019-03-28T10:03:00.187Z,39.67
2019-03-28T10:05:26.818Z,49.83
2019-03-28T10:07:53.431Z,40.60
2019-03-28T10:10:20.171Z,43.57
2019-03-28T10:12:46.787Z,39.77
2019-03-28T10:15:13.735Z,49.67
2019-03-28T10:17:42.457Z,48.33
2019-03-28T10:20:08.975Z,41.87
2019-03-28T10:22:36.330Z,48.43
2019-03-28T10:25:04.119Z,44.27
2019-03-28T10:27:30.679Z,39.77
2019-03-28T10:29:57.274Z,44.60
2019-03-28T10:32:24.002Z,39.63
2019-03-28T10:34:50.554Z,42.50
2019-03-28T10:37:17.135Z,43.97
2019-03-28T10:39:43.851Z,40.47
2019-03-28T10:42:10.477Z,37.20
2019-03-28T10:44:37.090Z,38.33
2019-03-28T10:47:05.055Z,45.20
2019-03-28T10:49:31.914Z,46.33
2019-03-28T10:51:58.659Z,45.33
2019-03-28T10:54:25.862Z,48.30
2019-03-28T10:56:57.236Z,43.87
2019-03-28T10:59:24.675Z,46.27
2019-03-28T11:01:50.865Z,40.73
2019-03-28T11:04:17.874Z,39.80
2019-03-28T11:06:44.570Z,41.17
2019-03-28T11:09:11.164Z,48.20
2019-03-28T11:11:37.750Z,37.47
2019-03-28T11:14:04.423Z,33.37
2019-03-28T11:16:31.067Z,36.17
2019-03-28T11:18:57.691Z,34.30
2019-03-28T11:21:24.245Z,32.70
2019-03-28T11:23:53.113Z,32.10
2019-03-28T11:26:42.875Z,35.53
2019-03-28T11:29:09.487Z,27.60
2019-03-28T11:31:46.664Z,28.97
2019-03-28T11:34:04.975Z,32.17
2019-03-28T11:36:31.629Z,38.90
2019-03-28T11:38:58.202Z,31.70
2019-03-28T11:41:24.895Z,29.53
2019-03-28T11:43:51.475Z,23.83
2019-03-28T11:46:18.035Z,21.27
2019-03-28T11:48:44.606Z,21.63
2019-03-28T11:51:11.231Z,25.90
2019-03-28T11:53:37.858Z,29.13
2019-03-28T11:56:04.532Z,27.87
2019-03-28T11:58:31.110Z,24.57
2019-03-28T12:00:57.669Z,25.37
2019-03-28T12:03:24.508Z,24.80
2019-03-28T12:05:53.110Z,23.47
2019-03-28T12:08:19.562Z,22.10
2019-03-28T12:10:46.143Z,20.70
2019-03-28T12:13:12.707Z,25.57
2019-03-28T12:15:39.297Z,20.53
2019-03-28T12:18:05.868Z,19.70
2019-03-28T12:20:32.543Z,28.80
2019-03-28T12:22:59.107Z,24.00
2019-03-28T12:25:25.694Z,21.97
2019-03-28T12:27:52.526Z,27.43
2019-03-28T12:30:19.291Z,21.47
2019-03-28T12:32:45.887Z,24.60
2019-03-28T12:35:12.534Z,20.80
2019-03-28T12:37:39.114Z,21.17
2019-03-28T12:40:06.210Z,27.23
2019-03-28T12:42:32.786Z,24.27
2019-03-28T12:44:59.614Z,41.07
2019-03-28T12:47:26.450Z,59.20
2019-03-28T12:49:53.027Z,31.03
2019-03-28T12:52:19.603Z,28.33
2019-03-28T12:54:46.169Z,25.37
2019-03-28T12:57:14.352Z,23.73
2019-03-28T12:59:41.215Z,29.53
2019-03-28T13:02:07.831Z,26.43
2019-03-28T13:04:34.400Z,27.93
2019-03-28T13:07:00.979Z,24.00
2019-03-28T13:09:28.210Z,31.07
2019-03-28T13:11:54.897Z,27.47
2019-03-28T13:14:21.759Z,27.27
2019-03-28T13:16:48.334Z,29.13
2019-03-28T13:19:14.918Z,31.57
2019-03-28T13:21:41.555Z,30.83
2019-03-28T13:24:08.623Z,32.33
2019-03-28T13:26:35.411Z,32.40
2019-03-28T13:29:02.104Z,35.63
2019-03-28T13:31:28.775Z,36.90
2019-03-28T13:33:55.534Z,31.27
2019-03-28T13:36:22.200Z,25.37
2019-03-28T13:38:48.926Z,23.80
2019-03-28T13:41:15.521Z,28.07
2019-03-28T13:43:42.107Z,30.00
2019-03-28T13:46:08.667Z,27.20
2019-03-28T13:48:35.231Z,31.73
2019-03-28T13:51:01.910Z,30.93
2019-03-28T13:53:38.709Z,28.37
2019-03-28T13:55:57.007Z,27.00
2019-03-28T13:58:23.562Z,31.90
2019-03-28T14:00:50.146Z,28.67
2019-03-28T14:03:16.705Z,28.63
2019-03-28T14:05:43.286Z,30.40
2019-03-28T14:08:09.851Z,33.93
2019-03-28T14:10:36.427Z,28.47
2019-03-28T14:13:02.987Z,24.93
2019-03-28T14:15:29.578Z,27.20
2019-03-28T14:17:56.226Z,30.23
2019-03-28T14:20:23.044Z,28.20
2019-03-28T14:22:49.650Z,29.50
2019-03-28T14:25:16.311Z,32.57
2019-03-28T14:27:43.828Z,32.90
2019-03-28T14:30:11.656Z,29.57
2019-03-28T14:32:52.214Z,29.77
2019-03-28T14:35:07.310Z,33.77
2019-03-28T14:37:34.135Z,49.93
2019-03-28T14:40:00.703Z,56.20
2019-03-28T14:42:27.389Z,55.00
2019-03-28T14:44:54.050Z,42.07
2019-03-28T14:47:20.887Z,33.07
2019-03-28T14:49:47.608Z,35.93
2019-03-28T14:52:14.550Z,30.87
2019-03-28T14:54:41.518Z,32.33
2019-03-28T14:57:08.442Z,26.27
2019-03-28T14:59:36.080Z,27.93
2019-03-28T15:02:02.938Z,27.43
2019-03-28T15:04:29.607Z,27.27
2019-03-28T15:06:56.523Z,30.90
2019-03-28T15:09:23.093Z,29.00
2019-03-28T15:11:49.664Z,30.70
2019-03-28T15:14:16.267Z,29.10
2019-03-28T15:16:42.931Z,29.97
2019-03-28T15:19:09.511Z,29.50
2019-03-28T15:21:36.061Z,29.90
2019-03-28T15:24:02.745Z,29.67
2019-03-28T15:26:30.381Z,30.50
2019-03-28T15:28:57.356Z,28.60
2019-03-28T15:31:23.918Z,30.17
2019-03-28T15:33:50.507Z,27.17
2019-03-28T15:36:17.066Z,27.67
2019-03-28T15:38:43.630Z,28.97
2019-03-28T15:41:10.311Z,28.97
2019-03-28T15:43:37.055Z,26.50
2019-03-28T15:46:03.909Z,29.43
2019-03-28T15:48:30.465Z,27.83
2019-03-28T15:50:57.046Z,30.37
2019-03-28T15:53:23.789Z,29.53
2019-03-28T15:55:50.478Z,27.83
2019-03-28T15:58:23.023Z,31.83
2019-03-28T16:00:45.543Z,31.20
2019-03-28T16:03:12.102Z,30.53
2019-03-28T16:05:38.942Z,28.10
2019-03-28T16:08:05.516Z,30.97
2019-03-28T16:10:32.087Z,30.67
2019-03-28T16:12:58.666Z,28.83
2019-03-28T16:15:25.303Z,31.83
2019-03-28T16:17:51.886Z,30.80
2019-03-28T16:20:18.472Z,35.47
2019-03-28T16:22:45.102Z,37.63
2019-03-28T16:25:11.714Z,31.57
2019-03-28T16:27:38.302Z,31.80
2019-03-28T16:30:08.628Z,30.10
2019-03-28T16:32:35.193Z,38.07
2019-03-28T16:35:02.670Z,33.07
2019-03-28T16:37:29.252Z,34.03
2019-03-28T16:39:55.802Z,29.97
2019-03-28T16:42:22.398Z,31.73
2019-03-28T16:44:48.955Z,32.90
2019-03-28T16:47:15.542Z,33.37
2019-03-28T16:49:42.102Z,34.03
2019-03-28T16:52:08.664Z,32.30
2019-03-28T16:54:35.242Z,37.90
2019-03-28T16:57:02.126Z,34.73
2019-03-28T16:59:28.710Z,37.20
2019-03-28T17:01:55.494Z,37.73
2019-03-28T17:04:22.962Z,39.17
2019-03-28T17:06:50.355Z,35.13
2019-03-28T17:09:17.188Z,37.77
2019-03-28T17:11:43.737Z,36.07
2019-03-28T17:14:10.339Z,35.17
2019-03-28T17:16:36.900Z,36.37
2019-03-28T17:19:03.619Z,36.77
2019-03-28T17:21:30.298Z,35.77
2019-03-28T17:23:56.856Z,37.03
2019-03-28T17:26:23.429Z,35.83
2019-03-28T17:28:49.994Z,38.17
2019-03-28T17:31:16.571Z,35.77
2019-03-28T17:33:43.307Z,53.40
2019-03-28T17:36:10.171Z,38.63
2019-03-28T17:38:36.725Z,41.27
2019-03-28T17:41:06.365Z,37.27
2019-03-28T17:43:32.106Z,36.83
2019-03-28T17:45:58.670Z,32.93
2019-03-28T17:48:28.223Z,35.77
2019-03-28T17:50:53.982Z,35.67
2019-03-28T17:53:23.740Z,37.00
2019-03-28T17:55:49.098Z,36.77
2019-03-28T17:58:15.678Z,34.67
2019-03-28T18:00:44.275Z,37.33
2019-03-28T18:03:10.965Z,35.60
2019-03-28T18:05:40.479Z,38.23
2019-03-28T18:08:06.000Z,38.13
2019-03-28T18:10:32.653Z,36.73
2019-03-28T18:12:59.209Z,38.97
2019-03-28T18:15:25.901Z,37.47
2019-03-28T18:17:52.457Z,39.33
2019-03-28T18:20:19.130Z,36.30
2019-03-28T18:22:45.703Z,39.27
2019-03-28T18:25:12.573Z,37.27
2019-03-28T18:27:39.142Z,39.87
2019-03-28T18:30:07.428Z,33.87
2019-03-28T18:32:33.991Z,35.17
2019-03-28T18:35:05.814Z,40.27
2019-03-28T18:37:29.106Z,64.67
2019-03-28T18:39:55.762Z,49.40
2019-03-28T18:42:22.327Z,45.97
2019-03-28T18:44:48.890Z,37.63
2019-03-28T18:47:15.466Z,38.77
2019-03-28T18:49:42.026Z,38.13
2019-03-28T18:52:08.744Z,35.73
2019-03-28T18:54:35.295Z,38.27
2019-03-28T18:57:03.376Z,34.17
2019-03-28T18:59:30.067Z,35.30
2019-03-28T19:01:56.643Z,33.63
2019-03-28T19:04:23.207Z,33.50
2019-03-28T19:06:49.782Z,34.73
2019-03-28T19:09:16.344Z,36.80
2019-03-28T19:11:42.930Z,32.73
2019-03-28T19:14:09.494Z,36.33
2019-03-28T19:16:36.046Z,33.53
2019-03-28T19:19:02.655Z,31.97
2019-03-28T19:21:29.222Z,32.27
2019-03-28T19:23:55.804Z,34.17
2019-03-28T19:26:22.375Z,33.77
2019-03-28T19:28:49.002Z,33.03
2019-03-28T19:31:15.635Z,29.83
2019-03-28T19:33:42.250Z,37.47
2019-03-28T19:36:09.124Z,32.37
2019-03-28T19:38:35.798Z,35.87
2019-03-28T19:41:02.535Z,35.73
2019-03-28T19:43:29.223Z,34.93
2019-03-28T19:45:55.882Z,34.33
2019-03-28T19:48:22.455Z,128.40
2019-03-28T19:50:49.036Z,217.77
2019-03-28T19:53:15.687Z,116.87
2019-03-28T19:55:42.317Z,103.63
2019-03-28T19:58:08.943Z,52.47
2019-03-28T20:00:35.562Z,50.20
2019-03-28T20:03:02.759Z,47.87
2019-03-28T20:05:29.418Z,43.67
2019-03-28T20:07:56.377Z,44.13
2019-03-28T20:10:23.006Z,38.67
2019-03-28T20:12:49.635Z,41.93
2019-03-28T20:15:16.263Z,40.50
2019-03-28T20:17:43.210Z,37.07
2019-03-28T20:20:10.666Z,41.73
2019-03-28T20:22:37.253Z,35.73
2019-03-28T20:25:04.632Z,39.33
2019-03-28T20:27:31.257Z,41.57
2019-03-28T20:29:57.866Z,38.97
2019-03-28T20:32:24.503Z,36.10
2019-03-28T20:34:51.115Z,37.53
2019-03-28T20:37:17.725Z,37.27
2019-03-28T20:39:44.353Z,39.33
2019-03-28T20:42:10.965Z,170.40
2019-03-28T20:44:37.604Z,73.43
2019-03-28T20:47:04.183Z,58.20
2019-03-28T20:49:30.957Z,40.60
2019-03-28T20:51:57.562Z,40.37
2019-03-28T20:54:24.162Z,44.13
2019-03-28T20:56:50.754Z,41.30
2019-03-28T20:59:17.437Z,41.23
2019-03-28T21:01:44.032Z,37.57
2019-03-28T21:04:10.735Z,39.07
2019-03-28T21:06:37.899Z,41.43
2019-03-28T21:09:04.974Z,44.17
2019-03-28T21:11:31.574Z,56.40
2019-03-28T21:13:58.258Z,63.87
2019-03-28T21:16:24.834Z,57.27
2019-03-28T21:18:52.096Z,52.47
2019-03-28T21:21:19.371Z,49.10
2019-03-28T21:23:46.215Z,43.47
2019-03-28T21:26:13.095Z,49.00
2019-03-28T21:28:47.171Z,43.83
2019-03-28T21:31:08.151Z,44.13
2019-03-28T21:33:35.010Z,41.67
2019-03-28T21:36:01.806Z,46.20
2019-03-28T21:38:28.466Z,46.27
2019-03-28T21:40:55.013Z,46.37
2019-03-28T21:43:21.602Z,43.90
2019-03-28T21:45:48.171Z,43.73
2019-03-28T21:48:14.751Z,42.77
2019-03-28T21:50:41.323Z,44.50
2019-03-28T21:53:07.895Z,39.57
2019-03-28T21:55:34.455Z,39.80
2019-03-28T21:58:01.050Z,39.47
2019-03-28T22:00:30.551Z,40.07
2019-03-28T22:02:57.150Z,42.03
2019-03-28T22:05:23.716Z,43.47
2019-03-28T22:07:50.294Z,41.93
2019-03-28T22:10:17.176Z,41.03
2019-03-28T22:12:44.139Z,41.17
2019-03-28T22:15:10.898Z,36.23
2019-03-28T22:17:37.477Z,40.20
2019-03-28T22:20:04.699Z,40.63
2019-03-28T22:22:31.282Z,43.57
2019-03-28T22:24:57.947Z,41.10
2019-03-28T22:27:24.528Z,42.70
2019-03-28T22:29:51.098Z,43.47
2019-03-28T22:32:17.646Z,42.93
2019-03-28T22:34:44.222Z,42.53
2019-03-28T22:37:10.782Z,43.70
2019-03-28T22:39:37.357Z,40.13
2019-03-28T22:42:03.906Z,43.13
2019-03-28T22:44:33.641Z,41.27
2019-03-28T22:46:59.034Z,46.30
2019-03-28T22:49:25.623Z,46.77
2019-03-28T22:51:52.183Z,43.40
2019-03-28T22:54:18.771Z,48.23
2019-03-28T22:56:45.434Z,45.43
2019-03-28T22:59:12.070Z,42.83
2019-03-28T23:01:38.739Z,48.20
2019-03-28T23:04:05.422Z,48.23
2019-03-28T23:06:31.974Z,47.87
2019-03-28T23:08:58.922Z,48.13
2019-03-28T23:11:25.505Z,50.60
2019-03-28T23:13:52.826Z,51.77
2019-03-28T23:16:19.561Z,48.50
2019-03-28T23:18:46.301Z,49.33
2019-03-28T23:21:13.270Z,49.97
2019-03-28T23:23:39.847Z,49.27
2019-03-28T23:26:06.502Z,46.27
2019-03-28T23:28:33.098Z,48.87
2019-03-28T23:30:59.691Z,46.37
2019-03-28T23:33:26.262Z,46.00
2019-03-28T23:35:52.932Z,47.37
2019-03-28T23:38:19.981Z,44.43
2019-03-28T23:40:46.830Z,47.17
2019-03-28T23:43:13.390Z,46.50
2019-03-28T23:45:40.162Z,44.73
2019-03-28T23:48:06.736Z,47.67
2019-03-28T23:50:33.327Z,39.37
2019-03-28T23:53:00.019Z,39.50
2019-03-28T23:55:26.594Z,38.87
2019-03-28T23:57:53.150Z,36.77
